Terminal Aerodrome Forecast
Issued by NWS Bismarck, ND

Home | Current Version | Previous Version | Graphics & Text | Print | Product List | Glossary On
Versions: 1 2 3 4 5 6 7 8 9 10 11 12 13 14 15 16 17 18 19 20 21 22 23 24 25 26 27 28 29
000
FTUS43 KBIS 291600 AAA
TAFBIS
TAF AMD
KBIS 291609Z 2916/3012 30014KT P6SM VCSH BKN090
     FM291800 34013KT P6SM VCSH BKN070
     FM300300 04005KT P6SM FEW070=

USA.gov is the U.S. government's official web portal to all federal, state and local government web resources and services.